Time;durP1;ratioP1;P1;durP2;ratioP2;P2;SDS_P1;SDS_P2;PMS_P1;PMS_P2;Temp;Humidity;BMP_temperature;BMP_pressure;BME280_temperature;BME280_humidity;BME280_pressure;Samples;Min_cycle;Max_cycle;Signal;HPM_P1;HPM_P2
2022/01/03 00:01:31;;;;;;;13.43;2.17;;;;;;;;;;5146641;27;20525;-76
2022/01/03 00:03:57;;;;;;;18.02;2.05;;;;;;;;;;5142270;27;20075;-76
2022/01/03 00:06:24;;;;;;;21.23;2.50;;;;;;;;;;5148394;27;20142;-76
2022/01/03 00:08:50;;;;;;;15.25;2.58;;;;;;;;;;5148786;27;20051;-76
2022/01/03 00:11:18;;;;;;;17.63;2.40;;;;;;;;;;5142898;27;20083;-76
2022/01/03 00:13:45;;;;;;;18.05;2.00;;;;;;;;;;5130902;27;20066;-76
2022/01/03 00:16:12;;;;;;;23.70;3.53;;;;;;;;;;5146828;27;20079;-76
2022/01/03 00:18:39;;;;;;;20.67;2.30;;;;;;;;;;5147949;27;22587;-76
2022/01/03 00:21:15;;;;;;;17.10;2.53;;;;;;;;;;5148818;27;20059;-76
2022/01/03 00:23:47;;;;;;;20.35;3.25;;;;;;;;;;5145744;27;20550;-76
2022/01/03 00:26:25;;;;;;;19.90;2.88;;;;;;;;;;5148828;27;20130;-76
2022/01/03 00:28:57;;;;;;;19.02;2.75;;;;;;;;;;5126543;27;20584;-76
2022/01/03 00:31:29;;;;;;;24.17;3.13;;;;;;;;;;5148658;27;20059;-76
2022/01/03 00:33:56;;;;;;;28.70;3.30;;;;;;;;;;5137627;27;20055;-76
2022/01/03 00:36:23;;;;;;;21.70;2.90;;;;;;;;;;5135130;27;20105;-76
2022/01/03 00:38:49;;;;;;;21.67;2.55;;;;;;;;;;5148312;27;20101;-76
2022/01/03 00:41:15;;;;;;;20.58;3.10;;;;;;;;;;5126825;27;20067;-76
2022/01/03 00:43:42;;;;;;;25.70;2.88;;;;;;;;;;5131822;27;20059;-76
2022/01/03 00:46:09;;;;;;;25.88;3.60;;;;;;;;;;5157071;27;20378;-76
2022/01/03 00:48:35;;;;;;;19.13;3.00;;;;;;;;;;5148535;27;20644;-76
2022/01/03 00:51:02;;;;;;;20.60;2.78;;;;;;;;;;5129627;27;20098;-76
2022/01/03 00:53:29;;;;;;;31.52;3.50;;;;;;;;;;5130345;27;20086;-76
2022/01/03 00:56:00;;;;;;;26.63;3.33;;;;;;;;;;5151485;27;20632;-76
2022/01/03 00:58:29;;;;;;;29.58;3.28;;;;;;;;;;5147779;27;20579;-76
2022/01/03 01:00:56;;;;;;;24.35;3.03;;;;;;;;;;5148069;27;20140;-76
2022/01/03 01:03:27;;;;;;;25.63;3.42;;;;;;;;;;5127865;27;20055;-76
2022/01/03 01:05:54;;;;;;;33.75;4.97;;;;;;;;;;5128581;27;20104;-76
2022/01/03 01:08:21;;;;;;;23.35;3.65;;;;;;;;;;5140556;27;20051;-76
2022/01/03 01:10:51;;;;;;;23.08;3.08;;;;;;;;;;5127566;27;20128;-76
2022/01/03 01:13:18;;;;;;;33.15;3.60;;;;;;;;;;5120628;27;20087;-76
2022/01/03 01:15:44;;;;;;;24.75;3.63;;;;;;;;;;5141080;27;20102;-76
2022/01/03 01:18:11;;;;;;;29.67;3.50;;;;;;;;;;5148407;27;20481;-76
2022/01/03 01:20:39;;;;;;;18.73;3.03;;;;;;;;;;5148074;27;20051;-76
2022/01/03 01:23:06;;;;;;;34.80;3.67;;;;;;;;;;5147432;27;20062;-76
2022/01/03 01:28:03;;;;;;;26.52;3.10;;;;;;;;;;5147565;27;20109;-76
2022/01/03 01:30:29;;;;;;;25.48;3.88;;;;;;;;;;5145307;27;20481;-76
2022/01/03 01:33:01;;;;;;;30.10;3.72;;;;;;;;;;5125092;27;20055;-76
2022/01/03 01:35:36;;;;;;;21.88;4.03;;;;;;;;;;5140285;27;20047;-76
2022/01/03 01:38:03;;;;;;;30.08;3.53;;;;;;;;;;5144861;27;20090;-76
2022/01/03 01:40:29;;;;;;;29.50;3.17;;;;;;;;;;5148185;27;20159;-76
2022/01/03 01:42:56;;;;;;;28.40;5.05;;;;;;;;;;5144545;27;20510;-76
2022/01/03 01:45:25;;;;;;;22.60;3.92;;;;;;;;;;5128888;27;20142;-75
2022/01/03 01:47:54;;;;;;;22.27;2.95;;;;;;;;;;5145093;27;20586;-76
2022/01/03 01:50:21;;;;;;;29.13;3.13;;;;;;;;;;5130855;27;20062;-76
2022/01/03 01:52:49;;;;;;;25.42;3.75;;;;;;;;;;5129129;27;20051;-76
2022/01/03 01:55:16;;;;;;;21.13;2.80;;;;;;;;;;5155984;27;20082;-76
2022/01/03 01:58:01;;;;;;;22.27;3.22;;;;;;;;;;5128821;27;20051;-76
2022/01/03 02:00:28;;;;;;;16.58;3.05;;;;;;;;;;5130975;27;20083;-76
2022/01/03 02:02:54;;;;;;;26.70;2.90;;;;;;;;;;5148288;27;20097;-76
2022/01/03 02:05:30;;;;;;;23.08;3.55;;;;;;;;;;5120834;27;20055;-76
2022/01/03 02:08:16;;;;;;;29.45;3.10;;;;;;;;;;5147138;27;20105;-76
2022/01/03 02:10:42;;;;;;;23.02;3.25;;;;;;;;;;5150268;27;20181;-76
2022/01/03 02:13:09;;;;;;;23.30;3.33;;;;;;;;;;5147755;27;20557;-76
2022/01/03 02:15:37;;;;;;;34.88;2.92;;;;;;;;;;5138189;27;20086;-76
2022/01/03 02:18:05;;;;;;;32.08;4.00;;;;;;;;;;5152686;27;20090;-76
2022/01/03 02:20:32;;;;;;;28.77;3.22;;;;;;;;;;5144204;27;20098;-76
2022/01/03 02:22:58;;;;;;;28.90;4.15;;;;;;;;;;5145531;27;20597;-76
2022/01/03 02:25:25;;;;;;;24.65;3.30;;;;;;;;;;5132494;27;20051;-76
2022/01/03 02:27:52;;;;;;;35.30;3.97;;;;;;;;;;5150617;27;20078;-76
2022/01/03 02:30:23;;;;;;;29.33;3.30;;;;;;;;;;5150885;27;20108;-76
2022/01/03 02:32:50;;;;;;;27.15;4.15;;;;;;;;;;5152950;27;20115;-78
2022/01/03 02:35:17;;;;;;;28.95;3.55;;;;;;;;;;5149807;27;20051;-75
2022/01/03 02:37:44;;;;;;;37.97;3.95;;;;;;;;;;5140393;27;20051;-76
2022/01/03 02:40:12;;;;;;;28.52;4.18;;;;;;;;;;5139329;27;20051;-75
2022/01/03 02:42:39;;;;;;;28.85;3.47;;;;;;;;;;5124105;27;20560;-76
2022/01/03 02:45:06;;;;;;;30.17;3.72;;;;;;;;;;5132134;27;20094;-76
2022/01/03 02:47:32;;;;;;;27.27;4.43;;;;;;;;;;5135649;27;20586;-76
2022/01/03 02:49:59;;;;;;;35.17;4.32;;;;;;;;;;5132217;27;20054;-76
2022/01/03 02:52:26;;;;;;;25.17;3.78;;;;;;;;;;5134587;27;20141;-76
2022/01/03 02:54:52;;;;;;;33.70;4.07;;;;;;;;;;5132734;27;20097;-76
2022/01/03 02:57:24;;;;;;;38.38;4.20;;;;;;;;;;5130003;27;20051;-76
2022/01/03 02:59:55;;;;;;;27.35;3.92;;;;;;;;;;5149892;27;20051;-76
2022/01/03 03:02:24;;;;;;;25.48;3.13;;;;;;;;;;5149390;27;20101;-76
2022/01/03 03:04:52;;;;;;;31.08;3.47;;;;;;;;;;5149911;27;20074;-76
2022/01/03 03:07:20;;;;;;;23.38;3.13;;;;;;;;;;5133804;27;20559;-76
2022/01/03 03:09:47;;;;;;;32.00;4.65;;;;;;;;;;5130637;27;20116;-76
2022/01/03 03:12:14;;;;;;;27.55;4.85;;;;;;;;;;5131057;27;20695;-76
2022/01/03 03:14:41;;;;;;;28.38;3.20;;;;;;;;;;5149115;27;20055;-76
2022/01/03 03:17:07;;;;;;;24.55;2.95;;;;;;;;;;5147842;27;20105;-76
2022/01/03 03:19:49;;;;;;;29.02;3.45;;;;;;;;;;5138029;27;20078;-76
2022/01/03 03:22:15;;;;;;;29.10;4.82;;;;;;;;;;5130551;27;20056;-76
2022/01/03 03:24:41;;;;;;;23.13;2.95;;;;;;;;;;5153055;27;20062;-76
2022/01/03 03:27:08;;;;;;;32.05;3.70;;;;;;;;;;5148930;27;20138;-76
2022/01/03 03:29:35;;;;;;;28.35;3.63;;;;;;;;;;5128092;27;20123;-76
2022/01/03 03:32:01;;;;;;;26.98;3.72;;;;;;;;;;5141441;27;20075;-76
2022/01/03 03:34:28;;;;;;;20.65;3.60;;;;;;;;;;5152423;27;20075;-76
2022/01/03 03:36:54;;;;;;;21.60;3.17;;;;;;;;;;5132318;27;20051;-76
2022/01/03 03:39:21;;;;;;;28.35;3.78;;;;;;;;;;5136330;27;20054;-76
2022/01/03 03:41:47;;;;;;;35.53;4.25;;;;;;;;;;5124351;27;20139;-76
2022/01/03 03:44:14;;;;;;;33.90;4.03;;;;;;;;;;5125476;27;20476;-76
2022/01/03 03:46:40;;;;;;;34.15;4.32;;;;;;;;;;5131373;27;20150;-76
2022/01/03 03:49:07;;;;;;;42.53;5.10;;;;;;;;;;5153306;27;20052;-76
2022/01/03 03:51:38;;;;;;;26.50;3.25;;;;;;;;;;5131060;27;20113;-76
2022/01/03 03:54:04;;;;;;;29.92;5.65;;;;;;;;;;5125841;27;20086;-76
2022/01/03 03:56:31;;;;;;;35.30;4.07;;;;;;;;;;5149126;27;20128;-76
2022/01/03 03:58:57;;;;;;;31.50;3.78;;;;;;;;;;5138514;27;20042;-76
2022/01/03 04:01:23;;;;;;;34.67;4.43;;;;;;;;;;5147514;27;20078;-76
2022/01/03 04:03:50;;;;;;;32.08;4.22;;;;;;;;;;5123324;27;20499;-76
2022/01/03 04:06:17;;;;;;;24.90;3.50;;;;;;;;;;5132633;27;20051;-76
2022/01/03 04:08:45;;;;;;;31.77;4.45;;;;;;;;;;5149544;27;20134;-76
2022/01/03 04:11:15;;;;;;;32.45;4.70;;;;;;;;;;5125533;27;20051;-76
2022/01/03 04:13:41;;;;;;;30.05;5.03;;;;;;;;;;5135567;27;20134;-76
2022/01/03 04:16:08;;;;;;;36.53;4.22;;;;;;;;;;5139697;27;20277;-76
2022/01/03 04:18:34;;;;;;;33.58;4.20;;;;;;;;;;5130747;27;20054;-76
2022/01/03 04:21:00;;;;;;;33.38;3.30;;;;;;;;;;5128544;27;20128;-76
2022/01/03 04:23:27;;;;;;;29.58;3.58;;;;;;;;;;5153825;27;20101;-76
2022/01/03 04:25:53;;;;;;;28.70;4.47;;;;;;;;;;5148756;27;20543;-76
2022/01/03 04:28:20;;;;;;;27.20;3.50;;;;;;;;;;5135089;27;20113;-76
2022/01/03 04:30:46;;;;;;;29.05;4.20;;;;;;;;;;5130704;27;20578;-76
2022/01/03 04:33:13;;;;;;;29.70;3.55;;;;;;;;;;5148276;27;20505;-76
2022/01/03 04:35:39;;;;;;;30.58;3.67;;;;;;;;;;5149325;27;20074;-76
2022/01/03 04:38:05;;;;;;;33.90;3.78;;;;;;;;;;5140496;27;20086;-76
2022/01/03 04:40:32;;;;;;;30.60;4.18;;;;;;;;;;5148689;27;20079;-76
2022/01/03 04:42:58;;;;;;;26.25;4.40;;;;;;;;;;5147035;27;20051;-76
2022/01/03 04:45:24;;;;;;;36.40;4.35;;;;;;;;;;5144313;27;20078;-76
2022/01/03 04:47:51;;;;;;;26.65;4.25;;;;;;;;;;5143990;27;20197;-76
2022/01/03 04:50:17;;;;;;;33.45;4.72;;;;;;;;;;5138289;27;20051;-77
2022/01/03 04:52:43;;;;;;;29.42;4.28;;;;;;;;;;5148005;27;20051;-76
2022/01/03 04:55:10;;;;;;;31.67;4.07;;;;;;;;;;5141961;27;20047;-76
2022/01/03 04:57:37;;;;;;;24.52;3.92;;;;;;;;;;5148574;27;20051;-76
2022/01/03 05:00:05;;;;;;;34.35;4.18;;;;;;;;;;5148302;27;20100;-76
2022/01/03 05:02:31;;;;;;;35.15;4.85;;;;;;;;;;5129209;27;20144;-76
2022/01/03 05:04:58;;;;;;;25.80;3.38;;;;;;;;;;5129836;27;20058;-76
2022/01/03 05:07:24;;;;;;;30.48;4.03;;;;;;;;;;5120751;27;20101;-76
2022/01/03 05:09:51;;;;;;;28.40;4.65;;;;;;;;;;5138578;27;20051;-76
2022/01/03 05:12:17;;;;;;;29.85;3.60;;;;;;;;;;5133837;27;20142;-76
2022/01/03 05:14:44;;;;;;;24.23;3.92;;;;;;;;;;5157958;27;20104;-76
2022/01/03 05:17:10;;;;;;;29.40;4.03;;;;;;;;;;5140676;27;20587;-76
2022/01/03 05:19:37;;;;;;;27.05;3.17;;;;;;;;;;5130581;27;20125;-76
2022/01/03 05:22:03;;;;;;;24.02;3.38;;;;;;;;;;5134741;27;20054;-76
2022/01/03 05:24:33;;;;;;;32.00;4.03;;;;;;;;;;5127234;27;20859;-76
2022/01/03 05:27:00;;;;;;;27.63;4.28;;;;;;;;;;5147819;27;20888;-77
2022/01/03 05:29:28;;;;;;;26.63;3.25;;;;;;;;;;5125861;27;20078;-77
2022/01/03 05:31:55;;;;;;;23.45;3.35;;;;;;;;;;5148101;27;20135;-76
2022/01/03 05:34:21;;;;;;;31.20;4.40;;;;;;;;;;5147024;27;21196;-76
2022/01/03 05:36:47;;;;;;;29.08;3.35;;;;;;;;;;5148143;27;20058;-76
2022/01/03 05:39:14;;;;;;;31.90;4.38;;;;;;;;;;5149489;27;20509;-76
2022/01/03 05:41:41;;;;;;;23.50;3.10;;;;;;;;;;5129694;27;20121;-77
2022/01/03 05:44:08;;;;;;;26.02;3.67;;;;;;;;;;5140047;27;20106;-77
2022/01/03 05:46:34;;;;;;;31.20;4.25;;;;;;;;;;5145985;27;20051;-76
2022/01/03 05:49:01;;;;;;;32.15;3.42;;;;;;;;;;5149065;27;20597;-77
2022/01/03 05:51:27;;;;;;;22.88;2.88;;;;;;;;;;5135147;27;20136;-77
2022/01/03 05:53:54;;;;;;;24.80;3.47;;;;;;;;;;5150804;27;20154;-77
2022/01/03 05:56:20;;;;;;;23.77;3.13;;;;;;;;;;5132682;27;21040;-76
2022/01/03 05:58:47;;;;;;;27.70;3.45;;;;;;;;;;5151419;27;20544;-77
2022/01/03 06:01:14;;;;;;;36.90;4.45;;;;;;;;;;5134693;27;20108;-77
2022/01/03 06:03:40;;;;;;;26.42;4.53;;;;;;;;;;5149380;27;20082;-77
2022/01/03 06:08:36;;;;;;;23.38;3.10;;;;;;;;;;5150784;27;20578;-77
2022/01/03 06:11:03;;;;;;;37.35;4.13;;;;;;;;;;5146912;27;20097;-77
2022/01/03 06:13:30;;;;;;;25.15;3.28;;;;;;;;;;5130465;27;20952;-77
2022/01/03 06:15:57;;;;;;;36.30;4.38;;;;;;;;;;5157155;27;20054;-77
2022/01/03 06:18:24;;;;;;;23.52;3.75;;;;;;;;;;5162102;27;20050;-77
2022/01/03 06:20:51;;;;;;;31.85;3.97;;;;;;;;;;5113292;27;20089;-77
2022/01/03 06:23:20;;;;;;;31.60;3.75;;;;;;;;;;5123537;27;20086;-77
2022/01/03 06:25:47;;;;;;;28.30;3.45;;;;;;;;;;5139296;27;20047;-77
2022/01/03 06:28:13;;;;;;;26.00;3.28;;;;;;;;;;5133383;27;20055;-77
2022/01/03 06:30:41;;;;;;;22.65;4.70;;;;;;;;;;5160353;27;20055;-77
2022/01/03 06:33:08;;;;;;;28.33;3.95;;;;;;;;;;5156560;27;20086;-77
2022/01/03 06:35:34;;;;;;;28.13;3.47;;;;;;;;;;5134036;27;21013;-77
2022/01/03 06:38:02;;;;;;;27.38;3.72;;;;;;;;;;5133999;27;20100;-77
2022/01/03 06:40:28;;;;;;;28.60;3.38;;;;;;;;;;5162803;27;20608;-77
2022/01/03 06:42:55;;;;;;;30.10;3.85;;;;;;;;;;5141886;27;20051;-77
2022/01/03 06:45:21;;;;;;;29.58;3.78;;;;;;;;;;5131930;27;20087;-77
2022/01/03 06:47:53;;;;;;;22.15;3.20;;;;;;;;;;5149866;27;20495;-77
2022/01/03 06:50:19;;;;;;;20.30;3.08;;;;;;;;;;5134264;27;20108;-77
2022/01/03 06:52:45;;;;;;;24.98;3.20;;;;;;;;;;5151407;27;20055;-77
2022/01/03 06:55:12;;;;;;;30.88;3.63;;;;;;;;;;5147959;27;20112;-77
2022/01/03 06:57:38;;;;;;;24.00;3.25;;;;;;;;;;5149788;27;20526;-77
2022/01/03 07:00:05;;;;;;;21.42;3.42;;;;;;;;;;5146047;27;20093;-77
2022/01/03 07:02:31;;;;;;;28.45;4.97;;;;;;;;;;5143445;27;20113;-77
2022/01/03 07:04:58;;;;;;;27.55;4.05;;;;;;;;;;5131613;27;20063;-77
2022/01/03 07:07:24;;;;;;;25.27;2.78;;;;;;;;;;5150666;27;20134;-76
2022/01/03 07:09:50;;;;;;;20.63;3.45;;;;;;;;;;5134828;27;20083;-77
2022/01/03 07:12:17;;;;;;;26.08;3.85;;;;;;;;;;5148454;27;20130;-77
2022/01/03 07:19:56;;;;;;;25.70;3.53;;;;;;;;;;5155466;27;21351;-78
2022/01/03 07:22:23;;;;;;;27.35;4.18;;;;;;;;;;5149916;27;20497;-78
2022/01/03 07:24:50;;;;;;;26.25;4.05;;;;;;;;;;5144639;27;20055;-78
2022/01/03 07:27:17;;;;;;;18.10;3.42;;;;;;;;;;5140112;27;20043;-78
2022/01/03 07:29:44;;;;;;;22.30;3.22;;;;;;;;;;5150787;27;20047;-78
2022/01/03 07:32:10;;;;;;;29.92;3.17;;;;;;;;;;5153210;27;20377;-78
2022/01/03 07:34:37;;;;;;;23.02;3.10;;;;;;;;;;5134380;27;20109;-78
2022/01/03 07:37:03;;;;;;;22.88;3.83;;;;;;;;;;5150038;27;20054;-78
2022/01/03 07:39:31;;;;;;;25.35;3.83;;;;;;;;;;5136967;27;20465;-78
2022/01/03 07:41:58;;;;;;;24.65;3.63;;;;;;;;;;5132373;27;20151;-78
2022/01/03 07:44:24;;;;;;;24.23;3.67;;;;;;;;;;5127757;27;20070;-78
2022/01/03 07:46:51;;;;;;;22.15;3.50;;;;;;;;;;5130712;27;20471;-78
2022/01/03 07:49:17;;;;;;;31.10;3.78;;;;;;;;;;5131721;27;20874;-78
2022/01/03 07:51:43;;;;;;;29.65;3.83;;;;;;;;;;5134611;27;20117;-78
2022/01/03 07:54:10;;;;;;;25.05;4.00;;;;;;;;;;5139220;27;20065;-78
2022/01/03 07:56:36;;;;;;;21.60;3.10;;;;;;;;;;5131137;27;20124;-78
2022/01/03 07:59:03;;;;;;;26.48;3.60;;;;;;;;;;5132215;27;20047;-78
2022/01/03 08:01:29;;;;;;;27.33;3.92;;;;;;;;;;5146344;27;20051;-78
2022/01/03 08:03:56;;;;;;;20.88;3.63;;;;;;;;;;5143939;27;20055;-78
2022/01/03 08:06:42;;;;;;;21.20;3.28;;;;;;;;;;5129668;27;20047;-78
2022/01/03 08:09:09;;;;;;;26.33;3.75;;;;;;;;;;5128410;27;20125;-78
2022/01/03 08:11:35;;;;;;;23.67;3.25;;;;;;;;;;5148028;27;20059;-78
2022/01/03 08:14:01;;;;;;;18.33;3.17;;;;;;;;;;5136819;27;20048;-78
2022/01/03 08:16:28;;;;;;;23.65;3.65;;;;;;;;;;5149725;27;20162;-78
2022/01/03 08:18:54;;;;;;;23.63;2.88;;;;;;;;;;5149565;27;20596;-79
2022/01/03 08:21:21;;;;;;;22.55;2.80;;;;;;;;;;5141897;27;20529;-78
2022/01/03 08:23:47;;;;;;;33.25;4.95;;;;;;;;;;5134767;27;20115;-78
2022/01/03 08:26:13;;;;;;;27.40;2.78;;;;;;;;;;5134935;27;20527;-78
2022/01/03 08:28:42;;;;;;;25.38;3.22;;;;;;;;;;5144219;27;20056;-79
2022/01/03 08:31:08;;;;;;;25.60;3.60;;;;;;;;;;5133969;27;20194;-79
2022/01/03 08:33:35;;;;;;;21.58;3.15;;;;;;;;;;5140926;27;20089;-78
2022/01/03 08:36:02;;;;;;;18.70;3.00;;;;;;;;;;5135363;27;20083;-78
2022/01/03 08:38:28;;;;;;;24.08;3.35;;;;;;;;;;5124500;27;20505;-78
2022/01/03 08:40:54;;;;;;;19.77;3.55;;;;;;;;;;5137483;27;20086;-79
2022/01/03 08:43:21;;;;;;;29.30;4.03;;;;;;;;;;5137207;27;20090;-78
2022/01/03 08:45:47;;;;;;;23.25;3.75;;;;;;;;;;5147442;27;20055;-79
2022/01/03 08:48:16;;;;;;;21.20;3.53;;;;;;;;;;5145511;27;20058;-78
2022/01/03 08:50:43;;;;;;;23.98;3.38;;;;;;;;;;5144880;27;20059;-78
2022/01/03 08:53:11;;;;;;;27.02;3.78;;;;;;;;;;5145029;27;20083;-79
2022/01/03 08:55:38;;;;;;;16.70;3.40;;;;;;;;;;5164105;27;20058;-78
2022/01/03 08:58:04;;;;;;;19.50;3.00;;;;;;;;;;5132788;27;20081;-79
2022/01/03 09:00:30;;;;;;;25.88;3.33;;;;;;;;;;5150653;27;20078;-81
2022/01/03 09:02:57;;;;;;;24.88;4.05;;;;;;;;;;5146343;27;20051;-79
2022/01/03 09:05:23;;;;;;;42.53;5.05;;;;;;;;;;5131054;27;20067;-79
2022/01/03 09:07:49;;;;;;;29.63;3.53;;;;;;;;;;5132151;27;20144;-79
2022/01/03 09:10:16;;;;;;;22.25;3.17;;;;;;;;;;5120139;27;20595;-78
2022/01/03 09:12:43;;;;;;;21.55;3.28;;;;;;;;;;5127635;27;20599;-78
2022/01/03 09:15:10;;;;;;;25.70;2.80;;;;;;;;;;5161011;27;20054;-78
2022/01/03 09:17:36;;;;;;;25.25;3.15;;;;;;;;;;5136410;27;20063;-79
2022/01/03 09:20:03;;;;;;;21.02;3.22;;;;;;;;;;5136206;27;20062;-79
2022/01/03 09:22:35;;;;;;;17.13;2.65;;;;;;;;;;5124487;27;20074;-79
2022/01/03 09:30:30;;;;;;;16.38;2.85;;;;;;;;;;5080788;28;20559;-79
2022/01/03 09:32:56;;;;;;;22.13;3.13;;;;;;;;;;5118894;27;20134;-78
2022/01/03 09:35:23;;;;;;;23.00;3.35;;;;;;;;;;5150884;27;20129;-78
2022/01/03 09:37:49;;;;;;;18.20;3.53;;;;;;;;;;5135025;27;20077;-79
2022/01/03 09:40:16;;;;;;;21.60;2.70;;;;;;;;;;5135980;27;20073;-79
2022/01/03 09:42:43;;;;;;;26.60;3.15;;;;;;;;;;5143746;27;20109;-80
2022/01/03 09:45:11;;;;;;;22.65;3.65;;;;;;;;;;5135567;27;20208;-80
2022/01/03 09:47:38;;;;;;;21.02;2.70;;;;;;;;;;5157434;27;20063;-79
2022/01/03 09:50:06;;;;;;;23.42;3.13;;;;;;;;;;5141831;27;20067;-79
2022/01/03 09:52:33;;;;;;;26.40;4.07;;;;;;;;;;5155823;27;20047;-80
2022/01/03 09:55:00;;;;;;;17.52;2.80;;;;;;;;;;5159929;27;20055;-80
2022/01/03 09:57:28;;;;;;;23.73;3.20;;;;;;;;;;5149437;27;20078;-79
2022/01/03 09:59:54;;;;;;;29.88;4.78;;;;;;;;;;5154327;27;20101;-79
2022/01/03 10:02:26;;;;;;;20.83;3.15;;;;;;;;;;5147326;27;20654;-79
2022/01/03 10:04:53;;;;;;;22.73;3.78;;;;;;;;;;5143448;27;20515;-79
2022/01/03 10:07:21;;;;;;;22.35;3.05;;;;;;;;;;5154874;27;20054;-79
2022/01/03 10:09:47;;;;;;;28.23;3.17;;;;;;;;;;5152417;27;20047;-79
2022/01/03 10:12:15;;;;;;;22.85;3.00;;;;;;;;;;5133235;27;20047;-79
2022/01/03 10:14:42;;;;;;;20.73;3.03;;;;;;;;;;5129832;27;20081;-77
2022/01/03 10:17:09;;;;;;;20.90;3.10;;;;;;;;;;5130677;27;20055;-79
2022/01/03 10:19:50;;;;;;;27.45;3.53;;;;;;;;;;5139075;27;20994;-79
2022/01/03 10:22:21;;;;;;;25.38;3.63;;;;;;;;;;5123156;27;20128;-77
2022/01/03 10:24:48;;;;;;;27.95;3.25;;;;;;;;;;5127877;27;20051;-77
2022/01/03 10:27:15;;;;;;;24.73;2.85;;;;;;;;;;5135805;27;20497;-78
2022/01/03 10:29:41;;;;;;;24.40;3.75;;;;;;;;;;5155903;27;20152;-78
2022/01/03 10:32:10;;;;;;;19.98;3.03;;;;;;;;;;5144331;27;20083;-78
2022/01/03 10:34:37;;;;;;;22.98;2.83;;;;;;;;;;5124439;27;20059;-79
2022/01/03 10:37:11;;;;;;;24.17;3.50;;;;;;;;;;5152948;27;20050;-79
2022/01/03 10:39:37;;;;;;;23.70;3.03;;;;;;;;;;5134661;27;20052;-79
2022/01/03 10:42:24;;;;;;;26.73;3.67;;;;;;;;;;5130878;27;20056;-79
2022/01/03 10:44:50;;;;;;;23.17;3.42;;;;;;;;;;5136029;27;20055;-79
2022/01/03 10:47:39;;;;;;;24.45;3.30;;;;;;;;;;5137890;27;20532;-79
2022/01/03 10:50:12;;;;;;;18.90;3.65;;;;;;;;;;5130458;27;20055;-79
2022/01/03 10:52:41;;;;;;;23.35;3.50;;;;;;;;;;5148852;27;21052;-79
2022/01/03 10:55:16;;;;;;;24.70;3.35;;;;;;;;;;5135893;27;20105;-80
2022/01/03 10:57:43;;;;;;;21.63;3.60;;;;;;;;;;5135555;27;20143;-79
2022/01/03 11:00:14;;;;;;;21.08;3.85;;;;;;;;;;5166087;27;20570;-79
2022/01/03 11:03:00;;;;;;;24.85;4.57;;;;;;;;;;5139545;27;20086;-79
2022/01/03 11:05:37;;;;;;;23.35;5.05;;;;;;;;;;5132541;27;20087;-79
2022/01/03 11:10:45;;;;;;;24.10;4.35;;;;;;;;;;5146090;27;20071;-79
2022/01/03 11:13:17;;;;;;;20.33;3.25;;;;;;;;;;5130729;27;20140;-79
2022/01/03 11:16:09;;;;;;;23.10;3.05;;;;;;;;;;5150370;27;20062;-79
2022/01/03 11:18:46;;;;;;;23.08;3.63;;;;;;;;;;5130011;27;20581;-80
2022/01/03 11:21:15;;;;;;;21.85;4.40;;;;;;;;;;5147718;27;20097;-79
2022/01/03 11:23:42;;;;;;;16.98;3.47;;;;;;;;;;5145736;27;20047;-79
2022/01/03 11:26:10;;;;;;;27.17;3.75;;;;;;;;;;5125816;27;20549;-79
2022/01/03 11:28:36;;;;;;;23.55;3.30;;;;;;;;;;5132863;27;20567;-79
2022/01/03 11:31:03;;;;;;;23.73;4.25;;;;;;;;;;5147895;27;20054;-79
2022/01/03 11:33:30;;;;;;;23.58;3.35;;;;;;;;;;5132049;27;20517;-79
2022/01/03 11:36:18;;;;;;;24.35;3.83;;;;;;;;;;5146067;27;20055;-79
2022/01/03 11:38:45;;;;;;;21.00;3.42;;;;;;;;;;5129715;27;20075;-79
2022/01/03 11:41:12;;;;;;;23.63;3.97;;;;;;;;;;5152250;27;20057;-79
2022/01/03 11:43:40;;;;;;;28.92;3.45;;;;;;;;;;5141271;27;20095;-79
2022/01/03 11:46:06;;;;;;;22.67;3.47;;;;;;;;;;5142988;27;20062;-79
2022/01/03 11:48:33;;;;;;;23.58;3.50;;;;;;;;;;5150154;27;20122;-80
2022/01/03 11:51:02;;;;;;;27.25;3.40;;;;;;;;;;5147840;27;20139;-79
2022/01/03 11:53:35;;;;;;;24.95;3.35;;;;;;;;;;5150766;27;20079;-79
2022/01/03 11:56:03;;;;;;;20.10;3.25;;;;;;;;;;5145894;27;20132;-79
2022/01/03 11:58:57;;;;;;;21.95;3.05;;;;;;;;;;5132546;27;20079;-80
2022/01/03 12:04:19;;;;;;;26.13;3.72;;;;;;;;;;5145979;27;20051;-80
2022/01/03 12:06:46;;;;;;;21.27;3.38;;;;;;;;;;5149539;27;20055;-79
2022/01/03 12:09:16;;;;;;;26.40;3.83;;;;;;;;;;5123064;27;20083;-79
2022/01/03 12:11:53;;;;;;;22.80;3.72;;;;;;;;;;5131488;27;20517;-79
2022/01/03 12:14:21;;;;;;;25.55;4.53;;;;;;;;;;5123071;27;20494;-80
2022/01/03 12:17:01;;;;;;;27.85;4.45;;;;;;;;;;5146226;27;20051;-79
2022/01/03 12:19:38;;;;;;;30.13;3.93;;;;;;;;;;5145594;27;20055;-79
2022/01/03 12:22:04;;;;;;;26.67;5.72;;;;;;;;;;5152316;27;20078;-79
2022/01/03 12:24:33;;;;;;;27.08;4.32;;;;;;;;;;5150755;27;21434;-79
2022/01/03 12:27:09;;;;;;;21.00;4.30;;;;;;;;;;5150588;27;20588;-79
2022/01/03 12:29:57;;;;;;;25.92;3.75;;;;;;;;;;5131241;27;20339;-79
2022/01/03 12:32:25;;;;;;;22.00;4.20;;;;;;;;;;5150645;27;20128;-79
2022/01/03 12:35:07;;;;;;;28.63;4.70;;;;;;;;;;5123065;27;20684;-79
2022/01/03 12:37:34;;;;;;;26.27;7.45;;;;;;;;;;5137213;27;20104;-79
2022/01/03 12:40:08;;;;;;;20.83;4.68;;;;;;;;;;5141729;27;20167;-79
2022/01/03 12:42:53;;;;;;;19.15;3.95;;;;;;;;;;5149243;27;20067;-79
2022/01/03 12:45:29;;;;;;;23.55;4.30;;;;;;;;;;5126362;27;20139;-79
2022/01/03 12:48:08;;;;;;;16.40;3.72;;;;;;;;;;5132124;27;20531;-79
2022/01/03 12:50:39;;;;;;;17.00;2.90;;;;;;;;;;5132724;27;20079;-79
2022/01/03 12:53:06;;;;;;;15.85;2.95;;;;;;;;;;5130183;27;20106;-79
2022/01/03 12:55:39;;;;;;;19.30;3.72;;;;;;;;;;5147431;27;20280;-79
2022/01/03 12:58:14;;;;;;;23.90;4.72;;;;;;;;;;5150387;27;20059;-79
2022/01/03 13:00:45;;;;;;;16.98;3.08;;;;;;;;;;5129642;27;20059;-79
2022/01/03 13:03:21;;;;;;;20.77;3.17;;;;;;;;;;5135754;27;20054;-79
2022/01/03 13:06:06;;;;;;;12.35;2.85;;;;;;;;;;5119852;27;20051;-79
2022/01/03 13:08:34;;;;;;;13.98;2.70;;;;;;;;;;5146452;27;20063;-79
2022/01/03 13:11:00;;;;;;;17.73;2.75;;;;;;;;;;5148588;27;20521;-79
2022/01/03 13:13:28;;;;;;;17.90;3.22;;;;;;;;;;5154738;27;20135;-79
2022/01/03 13:15:55;;;;;;;23.33;3.80;;;;;;;;;;5148940;27;20133;-79
2022/01/03 13:18:21;;;;;;;16.98;3.05;;;;;;;;;;5140883;27;20051;-79
2022/01/03 13:20:58;;;;;;;16.42;3.13;;;;;;;;;;5157951;27;20051;-79
2022/01/03 13:23:24;;;;;;;17.13;3.20;;;;;;;;;;5148130;27;20472;-79
2022/01/03 13:26:00;;;;;;;19.17;2.67;;;;;;;;;;5151697;27;20074;-79
2022/01/03 13:28:27;;;;;;;18.27;4.00;;;;;;;;;;5125824;27;20130;-79
2022/01/03 13:31:00;;;;;;;16.48;4.10;;;;;;;;;;5142397;27;20051;-79
2022/01/03 13:33:29;;;;;;;15.57;3.20;;;;;;;;;;5152053;27;20650;-80
2022/01/03 13:36:03;;;;;;;13.35;2.67;;;;;;;;;;5153999;27;20067;-80
2022/01/03 13:38:30;;;;;;;17.45;3.08;;;;;;;;;;5125236;27;20058;-79
2022/01/03 13:41:13;;;;;;;19.48;2.58;;;;;;;;;;5159813;27;20211;-79
2022/01/03 13:43:43;;;;;;;14.20;3.00;;;;;;;;;;5128364;27;20051;-79
2022/01/03 13:51:20;;;;;;;17.92;2.42;;;;;;;;;;5148474;27;20051;-79
2022/01/03 13:53:51;;;;;;;14.82;2.20;;;;;;;;;;5142507;27;20120;-79
2022/01/03 13:56:18;;;;;;;24.60;2.72;;;;;;;;;;5136704;27;20130;-79
2022/01/03 13:58:45;;;;;;;15.32;2.60;;;;;;;;;;5142038;27;20859;-79
2022/01/03 14:01:11;;;;;;;12.73;2.45;;;;;;;;;;5148388;27;20097;-78
2022/01/03 14:03:43;;;;;;;14.13;2.13;;;;;;;;;;5125769;27;20059;-79
2022/01/03 14:06:20;;;;;;;13.95;1.88;;;;;;;;;;5146367;27;20054;-79
2022/01/03 14:08:49;;;;;;;14.93;2.38;;;;;;;;;;5132416;27;20133;-79
2022/01/03 14:11:18;;;;;;;14.13;2.17;;;;;;;;;;5139122;27;20053;-79
2022/01/03 14:13:44;;;;;;;19.45;2.75;;;;;;;;;;5136504;27;20101;-79
2022/01/03 14:16:17;;;;;;;13.68;2.65;;;;;;;;;;5145591;27;20244;-79
2022/01/03 14:18:44;;;;;;;12.75;2.10;;;;;;;;;;5142031;27;20591;-79
2022/01/03 14:21:12;;;;;;;13.82;1.90;;;;;;;;;;5127052;27;20051;-79
2022/01/03 14:23:46;;;;;;;12.52;2.55;;;;;;;;;;5133681;27;20086;-78
2022/01/03 14:26:13;;;;;;;13.57;1.92;;;;;;;;;;5147695;27;20140;-79
2022/01/03 14:29:10;;;;;;;13.82;2.00;;;;;;;;;;5137193;27;20509;-79
2022/01/03 14:31:41;;;;;;;12.48;2.10;;;;;;;;;;5141601;27;20205;-79
2022/01/03 14:34:07;;;;;;;12.75;2.33;;;;;;;;;;5124800;27;20445;-79
2022/01/03 14:36:41;;;;;;;14.52;2.20;;;;;;;;;;5146143;27;20133;-79
2022/01/03 14:39:07;;;;;;;13.13;2.65;;;;;;;;;;5139883;27;20136;-79
2022/01/03 14:41:34;;;;;;;9.82;1.92;;;;;;;;;;5129961;27;20552;-79
2022/01/03 14:44:02;;;;;;;10.73;1.95;;;;;;;;;;5136197;27;20074;-78
2022/01/03 14:46:30;;;;;;;13.05;1.92;;;;;;;;;;5147148;27;20065;-79
2022/01/03 14:48:56;;;;;;;16.77;2.47;;;;;;;;;;5146414;27;20062;-79
2022/01/03 14:51:32;;;;;;;9.98;2.05;;;;;;;;;;5136454;27;20400;-79
2022/01/03 14:54:18;;;;;;;13.52;2.25;;;;;;;;;;5141904;27;20160;-78
2022/01/03 14:56:45;;;;;;;13.18;3.10;;;;;;;;;;5126669;27;20057;-79
2022/01/03 14:59:13;;;;;;;12.18;2.15;;;;;;;;;;5152337;27;20051;-79
2022/01/03 15:01:41;;;;;;;8.05;1.92;;;;;;;;;;5145384;27;20136;-79
2022/01/03 15:04:07;;;;;;;6.50;1.65;;;;;;;;;;5137528;27;20895;-79
2022/01/03 15:06:34;;;;;;;7.53;1.70;;;;;;;;;;5129415;27;20044;-78